sensor_id;sensor_type;location;lat;lon;timestamp;P1;durP1;ratioP1;P2;durP2;ratioP2
62687;SDS011;48752;51.056;17.056;2023-12-28T00:01:08;65.90;;;27.80;;
62687;SDS011;48752;51.056;17.056;2023-12-28T00:03:33;55.90;;;26.63;;
62687;SDS011;48752;51.056;17.056;2023-12-28T00:05:59;60.53;;;28.05;;
62687;SDS011;48752;51.056;17.056;2023-12-28T00:08:24;62.30;;;26.70;;
62687;SDS011;48752;51.056;17.056;2023-12-28T00:10:50;59.10;;;27.27;;
62687;SDS011;48752;51.056;17.056;2023-12-28T00:13:16;55.17;;;26.83;;
62687;SDS011;48752;51.056;17.056;2023-12-28T00:15:41;62.05;;;27.20;;
62687;SDS011;48752;51.056;17.056;2023-12-28T00:18:06;64.72;;;27.48;;
62687;SDS011;48752;51.056;17.056;2023-12-28T00:20:32;57.28;;;24.75;;
62687;SDS011;48752;51.056;17.056;2023-12-28T00:22:57;52.97;;;24.73;;
62687;SDS011;48752;51.056;17.056;2023-12-28T00:25:24;58.63;;;26.92;;
62687;SDS011;48752;51.056;17.056;2023-12-28T00:27:49;57.95;;;25.88;;
62687;SDS011;48752;51.056;17.056;2023-12-28T00:30:15;54.50;;;25.10;;
62687;SDS011;48752;51.056;17.056;2023-12-28T00:32:42;59.97;;;26.38;;
62687;SDS011;48752;51.056;17.056;2023-12-28T00:35:11;53.08;;;27.45;;
62687;SDS011;48752;51.056;17.056;2023-12-28T00:37:37;55.58;;;26.77;;
62687;SDS011;48752;51.056;17.056;2023-12-28T00:40:02;58.55;;;26.55;;
62687;SDS011;48752;51.056;17.056;2023-12-28T00:42:28;61.58;;;26.98;;
62687;SDS011;48752;51.056;17.056;2023-12-28T00:44:53;55.13;;;26.65;;
62687;SDS011;48752;51.056;17.056;2023-12-28T00:47:19;53.55;;;25.08;;
62687;SDS011;48752;51.056;17.056;2023-12-28T00:49:44;54.35;;;24.85;;
62687;SDS011;48752;51.056;17.056;2023-12-28T00:52:10;59.47;;;26.23;;
62687;SDS011;48752;51.056;17.056;2023-12-28T00:54:38;51.20;;;24.30;;
62687;SDS011;48752;51.056;17.056;2023-12-28T00:57:04;57.47;;;25.00;;
62687;SDS011;48752;51.056;17.056;2023-12-28T00:59:29;50.13;;;25.70;;
62687;SDS011;48752;51.056;17.056;2023-12-28T01:01:55;56.72;;;25.83;;
62687;SDS011;48752;51.056;17.056;2023-12-28T01:04:21;62.45;;;27.00;;
62687;SDS011;48752;51.056;17.056;2023-12-28T01:06:50;51.78;;;23.92;;
62687;SDS011;48752;51.056;17.056;2023-12-28T01:09:15;55.20;;;25.80;;
62687;SDS011;48752;51.056;17.056;2023-12-28T01:11:41;56.30;;;24.73;;
62687;SDS011;48752;51.056;17.056;2023-12-28T01:14:06;54.30;;;25.45;;
62687;SDS011;48752;51.056;17.056;2023-12-28T01:16:32;51.35;;;24.67;;
62687;SDS011;48752;51.056;17.056;2023-12-28T01:18:57;51.60;;;23.85;;
62687;SDS011;48752;51.056;17.056;2023-12-28T01:21:23;59.47;;;23.63;;
62687;SDS011;48752;51.056;17.056;2023-12-28T01:23:49;51.85;;;24.83;;
62687;SDS011;48752;51.056;17.056;2023-12-28T01:26:16;45.55;;;24.33;;
62687;SDS011;48752;51.056;17.056;2023-12-28T01:28:42;54.17;;;24.05;;
62687;SDS011;48752;51.056;17.056;2023-12-28T01:31:07;54.78;;;25.90;;
62687;SDS011;48752;51.056;17.056;2023-12-28T01:33:33;52.97;;;25.23;;
62687;SDS011;48752;51.056;17.056;2023-12-28T01:35:59;52.83;;;24.02;;
62687;SDS011;48752;51.056;17.056;2023-12-28T01:38:24;54.65;;;24.92;;
62687;SDS011;48752;51.056;17.056;2023-12-28T01:40:50;56.58;;;25.77;;
62687;SDS011;48752;51.056;17.056;2023-12-28T01:43:15;49.00;;;25.67;;
62687;SDS011;48752;51.056;17.056;2023-12-28T01:45:40;55.97;;;25.90;;
62687;SDS011;48752;51.056;17.056;2023-12-28T01:48:06;58.13;;;27.35;;
62687;SDS011;48752;51.056;17.056;2023-12-28T01:50:32;56.08;;;26.90;;
62687;SDS011;48752;51.056;17.056;2023-12-28T01:52:58;58.80;;;26.17;;
62687;SDS011;48752;51.056;17.056;2023-12-28T01:55:24;63.22;;;28.15;;
62687;SDS011;48752;51.056;17.056;2023-12-28T01:57:50;67.70;;;29.70;;
62687;SDS011;48752;51.056;17.056;2023-12-28T02:00:15;52.67;;;27.05;;
62687;SDS011;48752;51.056;17.056;2023-12-28T02:02:41;54.40;;;28.20;;
62687;SDS011;48752;51.056;17.056;2023-12-28T02:05:07;61.35;;;26.70;;
62687;SDS011;48752;51.056;17.056;2023-12-28T02:07:33;59.75;;;26.98;;
62687;SDS011;48752;51.056;17.056;2023-12-28T02:10:01;50.85;;;26.50;;
62687;SDS011;48752;51.056;17.056;2023-12-28T02:12:27;58.30;;;28.17;;
62687;SDS011;48752;51.056;17.056;2023-12-28T02:14:52;54.03;;;27.80;;
62687;SDS011;48752;51.056;17.056;2023-12-28T02:17:35;53.83;;;26.35;;
62687;SDS011;48752;51.056;17.056;2023-12-28T02:20:03;57.53;;;26.38;;
62687;SDS011;48752;51.056;17.056;2023-12-28T02:22:31;51.97;;;26.48;;
62687;SDS011;48752;51.056;17.056;2023-12-28T02:25:09;57.08;;;28.15;;
62687;SDS011;48752;51.056;17.056;2023-12-28T02:27:39;53.78;;;26.40;;
62687;SDS011;48752;51.056;17.056;2023-12-28T02:30:07;52.35;;;26.60;;
62687;SDS011;48752;51.056;17.056;2023-12-28T02:32:42;56.47;;;26.08;;
62687;SDS011;48752;51.056;17.056;2023-12-28T02:35:14;53.22;;;27.13;;
62687;SDS011;48752;51.056;17.056;2023-12-28T02:37:42;47.92;;;23.73;;
62687;SDS011;48752;51.056;17.056;2023-12-28T02:40:09;55.50;;;24.02;;
62687;SDS011;48752;51.056;17.056;2023-12-28T02:42:36;49.25;;;24.40;;
62687;SDS011;48752;51.056;17.056;2023-12-28T02:45:01;54.17;;;24.52;;
62687;SDS011;48752;51.056;17.056;2023-12-28T02:47:27;46.80;;;22.60;;
62687;SDS011;48752;51.056;17.056;2023-12-28T02:49:52;44.78;;;22.40;;
62687;SDS011;48752;51.056;17.056;2023-12-28T02:52:18;44.38;;;21.15;;
62687;SDS011;48752;51.056;17.056;2023-12-28T02:54:43;56.50;;;26.15;;
62687;SDS011;48752;51.056;17.056;2023-12-28T02:57:09;58.15;;;27.67;;
62687;SDS011;48752;51.056;17.056;2023-12-28T02:59:34;56.67;;;26.17;;
62687;SDS011;48752;51.056;17.056;2023-12-28T03:01:59;54.42;;;26.75;;
62687;SDS011;48752;51.056;17.056;2023-12-28T03:04:25;48.42;;;25.00;;
62687;SDS011;48752;51.056;17.056;2023-12-28T03:06:50;46.90;;;21.50;;
62687;SDS011;48752;51.056;17.056;2023-12-28T03:09:16;49.58;;;23.40;;
62687;SDS011;48752;51.056;17.056;2023-12-28T03:11:41;43.67;;;19.58;;
62687;SDS011;48752;51.056;17.056;2023-12-28T03:14:07;44.55;;;19.35;;
62687;SDS011;48752;51.056;17.056;2023-12-28T03:16:32;36.40;;;18.38;;
62687;SDS011;48752;51.056;17.056;2023-12-28T03:18:57;40.47;;;19.95;;
62687;SDS011;48752;51.056;17.056;2023-12-28T03:21:23;33.78;;;18.15;;
62687;SDS011;48752;51.056;17.056;2023-12-28T03:23:48;37.65;;;18.02;;
62687;SDS011;48752;51.056;17.056;2023-12-28T03:26:14;32.70;;;16.10;;
62687;SDS011;48752;51.056;17.056;2023-12-28T03:28:39;22.98;;;13.60;;
62687;SDS011;48752;51.056;17.056;2023-12-28T03:31:05;34.50;;;17.92;;
62687;SDS011;48752;51.056;17.056;2023-12-28T03:33:30;26.45;;;11.88;;
62687;SDS011;48752;51.056;17.056;2023-12-28T03:35:56;17.27;;;10.02;;
62687;SDS011;48752;51.056;17.056;2023-12-28T03:38:22;16.65;;;8.73;;
62687;SDS011;48752;51.056;17.056;2023-12-28T03:40:47;12.63;;;7.38;;
62687;SDS011;48752;51.056;17.056;2023-12-28T03:43:15;11.30;;;6.93;;
62687;SDS011;48752;51.056;17.056;2023-12-28T03:45:40;13.88;;;7.20;;
62687;SDS011;48752;51.056;17.056;2023-12-28T03:48:05;13.13;;;7.65;;
62687;SDS011;48752;51.056;17.056;2023-12-28T03:50:31;13.20;;;6.78;;
62687;SDS011;48752;51.056;17.056;2023-12-28T03:52:56;19.83;;;9.57;;
62687;SDS011;48752;51.056;17.056;2023-12-28T03:55:23;21.35;;;11.23;;
62687;SDS011;48752;51.056;17.056;2023-12-28T03:57:49;23.45;;;12.60;;
62687;SDS011;48752;51.056;17.056;2023-12-28T04:00:16;18.42;;;9.27;;
62687;SDS011;48752;51.056;17.056;2023-12-28T04:02:41;14.15;;;7.95;;
62687;SDS011;48752;51.056;17.056;2023-12-28T04:05:07;13.98;;;7.75;;
62687;SDS011;48752;51.056;17.056;2023-12-28T04:07:32;11.30;;;6.63;;
62687;SDS011;48752;51.056;17.056;2023-12-28T04:09:58;14.73;;;5.85;;
62687;SDS011;48752;51.056;17.056;2023-12-28T04:12:23;9.32;;;5.45;;
62687;SDS011;48752;51.056;17.056;2023-12-28T04:14:49;13.00;;;5.43;;
62687;SDS011;48752;51.056;17.056;2023-12-28T04:17:14;8.82;;;4.90;;
62687;SDS011;48752;51.056;17.056;2023-12-28T04:19:40;5.82;;;3.67;;
62687;SDS011;48752;51.056;17.056;2023-12-28T04:22:05;4.55;;;3.63;;
62687;SDS011;48752;51.056;17.056;2023-12-28T04:24:30;5.85;;;3.28;;
62687;SDS011;48752;51.056;17.056;2023-12-28T04:26:56;5.82;;;3.58;;
62687;SDS011;48752;51.056;17.056;2023-12-28T04:29:21;5.75;;;4.50;;
62687;SDS011;48752;51.056;17.056;2023-12-28T04:31:47;8.40;;;3.50;;
62687;SDS011;48752;51.056;17.056;2023-12-28T04:34:12;7.22;;;3.70;;
62687;SDS011;48752;51.056;17.056;2023-12-28T04:36:41;10.13;;;6.30;;
62687;SDS011;48752;51.056;17.056;2023-12-28T04:39:08;8.25;;;5.03;;
62687;SDS011;48752;51.056;17.056;2023-12-28T04:41:33;8.93;;;5.57;;
62687;SDS011;48752;51.056;17.056;2023-12-28T04:43:58;7.10;;;4.32;;
62687;SDS011;48752;51.056;17.056;2023-12-28T04:46:24;8.63;;;4.63;;
62687;SDS011;48752;51.056;17.056;2023-12-28T04:48:49;8.65;;;5.78;;
62687;SDS011;48752;51.056;17.056;2023-12-28T04:51:15;8.20;;;4.88;;
62687;SDS011;48752;51.056;17.056;2023-12-28T04:53:40;8.75;;;5.63;;
62687;SDS011;48752;51.056;17.056;2023-12-28T04:56:06;9.93;;;7.07;;
62687;SDS011;48752;51.056;17.056;2023-12-28T04:58:31;12.25;;;8.20;;
62687;SDS011;48752;51.056;17.056;2023-12-28T05:00:57;11.73;;;7.53;;
62687;SDS011;48752;51.056;17.056;2023-12-28T05:03:22;13.80;;;6.85;;
62687;SDS011;48752;51.056;17.056;2023-12-28T05:05:47;12.70;;;7.47;;
62687;SDS011;48752;51.056;17.056;2023-12-28T05:08:13;14.45;;;7.57;;
62687;SDS011;48752;51.056;17.056;2023-12-28T05:10:38;13.88;;;6.78;;
62687;SDS011;48752;51.056;17.056;2023-12-28T05:13:04;10.30;;;6.90;;
62687;SDS011;48752;51.056;17.056;2023-12-28T05:15:29;20.13;;;9.25;;
62687;SDS011;48752;51.056;17.056;2023-12-28T05:17:54;20.48;;;11.13;;
62687;SDS011;48752;51.056;17.056;2023-12-28T05:20:20;17.40;;;8.43;;
62687;SDS011;48752;51.056;17.056;2023-12-28T05:22:45;16.63;;;9.73;;
62687;SDS011;48752;51.056;17.056;2023-12-28T05:25:11;19.63;;;10.63;;
62687;SDS011;48752;51.056;17.056;2023-12-28T05:27:37;17.73;;;10.13;;
62687;SDS011;48752;51.056;17.056;2023-12-28T05:30:03;21.15;;;11.43;;
62687;SDS011;48752;51.056;17.056;2023-12-28T05:32:29;16.83;;;9.43;;
62687;SDS011;48752;51.056;17.056;2023-12-28T05:34:55;15.45;;;7.85;;
62687;SDS011;48752;51.056;17.056;2023-12-28T05:37:20;13.75;;;9.32;;
62687;SDS011;48752;51.056;17.056;2023-12-28T05:39:45;14.98;;;8.45;;
62687;SDS011;48752;51.056;17.056;2023-12-28T05:42:11;12.55;;;8.57;;
62687;SDS011;48752;51.056;17.056;2023-12-28T05:44:36;12.60;;;7.07;;
62687;SDS011;48752;51.056;17.056;2023-12-28T05:47:02;8.88;;;5.80;;
62687;SDS011;48752;51.056;17.056;2023-12-28T05:49:28;10.98;;;6.15;;
62687;SDS011;48752;51.056;17.056;2023-12-28T05:51:55;11.73;;;5.90;;
62687;SDS011;48752;51.056;17.056;2023-12-28T05:54:21;14.60;;;5.75;;
62687;SDS011;48752;51.056;17.056;2023-12-28T05:56:46;13.95;;;6.40;;
62687;SDS011;48752;51.056;17.056;2023-12-28T05:59:11;14.95;;;8.60;;
62687;SDS011;48752;51.056;17.056;2023-12-28T06:01:43;12.15;;;6.68;;
62687;SDS011;48752;51.056;17.056;2023-12-28T06:04:09;9.88;;;5.55;;
62687;SDS011;48752;51.056;17.056;2023-12-28T06:06:35;10.18;;;6.00;;
62687;SDS011;48752;51.056;17.056;2023-12-28T06:09:01;11.00;;;5.57;;
62687;SDS011;48752;51.056;17.056;2023-12-28T06:11:28;7.80;;;5.18;;
62687;SDS011;48752;51.056;17.056;2023-12-28T06:13:53;6.90;;;3.85;;
62687;SDS011;48752;51.056;17.056;2023-12-28T06:16:19;7.85;;;3.45;;
62687;SDS011;48752;51.056;17.056;2023-12-28T06:18:44;6.07;;;3.42;;
62687;SDS011;48752;51.056;17.056;2023-12-28T06:21:10;6.93;;;3.47;;
62687;SDS011;48752;51.056;17.056;2023-12-28T06:23:35;6.18;;;3.17;;
62687;SDS011;48752;51.056;17.056;2023-12-28T06:26:04;4.68;;;2.88;;
62687;SDS011;48752;51.056;17.056;2023-12-28T06:28:31;7.90;;;2.97;;
62687;SDS011;48752;51.056;17.056;2023-12-28T06:30:57;5.70;;;2.92;;
62687;SDS011;48752;51.056;17.056;2023-12-28T06:33:26;4.85;;;2.72;;
62687;SDS011;48752;51.056;17.056;2023-12-28T06:35:52;5.70;;;2.70;;
62687;SDS011;48752;51.056;17.056;2023-12-28T06:38:18;5.43;;;2.65;;
62687;SDS011;48752;51.056;17.056;2023-12-28T06:40:43;3.63;;;2.40;;
62687;SDS011;48752;51.056;17.056;2023-12-28T06:43:09;5.20;;;2.42;;
62687;SDS011;48752;51.056;17.056;2023-12-28T06:45:34;7.32;;;2.78;;
62687;SDS011;48752;51.056;17.056;2023-12-28T06:47:59;5.78;;;2.65;;
62687;SDS011;48752;51.056;17.056;2023-12-28T06:50:25;8.82;;;3.35;;
62687;SDS011;48752;51.056;17.056;2023-12-28T06:52:50;10.75;;;3.70;;
62687;SDS011;48752;51.056;17.056;2023-12-28T06:55:16;4.30;;;2.40;;
62687;SDS011;48752;51.056;17.056;2023-12-28T06:57:41;4.68;;;2.40;;
62687;SDS011;48752;51.056;17.056;2023-12-28T07:00:06;4.18;;;2.22;;
62687;SDS011;48752;51.056;17.056;2023-12-28T07:02:32;5.22;;;2.08;;
62687;SDS011;48752;51.056;17.056;2023-12-28T07:04:58;5.80;;;2.30;;
62687;SDS011;48752;51.056;17.056;2023-12-28T07:07:23;3.45;;;2.03;;
62687;SDS011;48752;51.056;17.056;2023-12-28T07:09:49;2.30;;;1.75;;
62687;SDS011;48752;51.056;17.056;2023-12-28T07:12:14;4.78;;;2.13;;
62687;SDS011;48752;51.056;17.056;2023-12-28T07:14:40;6.53;;;1.90;;
62687;SDS011;48752;51.056;17.056;2023-12-28T07:17:05;2.58;;;1.90;;
62687;SDS011;48752;51.056;17.056;2023-12-28T07:19:31;4.40;;;2.58;;
62687;SDS011;48752;51.056;17.056;2023-12-28T07:21:56;2.53;;;2.20;;
62687;SDS011;48752;51.056;17.056;2023-12-28T07:24:23;4.10;;;2.33;;
62687;SDS011;48752;51.056;17.056;2023-12-28T07:26:48;2.88;;;2.20;;
62687;SDS011;48752;51.056;17.056;2023-12-28T07:29:13;3.90;;;1.77;;
62687;SDS011;48752;51.056;17.056;2023-12-28T07:31:39;5.85;;;2.08;;
62687;SDS011;48752;51.056;17.056;2023-12-28T07:34:04;5.40;;;2.08;;
62687;SDS011;48752;51.056;17.056;2023-12-28T07:36:30;2.50;;;2.00;;
62687;SDS011;48752;51.056;17.056;2023-12-28T07:38:56;3.53;;;2.30;;
62687;SDS011;48752;51.056;17.056;2023-12-28T07:41:21;2.60;;;1.77;;
62687;SDS011;48752;51.056;17.056;2023-12-28T07:43:46;3.47;;;2.25;;
62687;SDS011;48752;51.056;17.056;2023-12-28T07:46:12;4.28;;;2.30;;
62687;SDS011;48752;51.056;17.056;2023-12-28T07:48:37;3.88;;;2.08;;
62687;SDS011;48752;51.056;17.056;2023-12-28T07:51:06;2.08;;;1.67;;
62687;SDS011;48752;51.056;17.056;2023-12-28T07:53:32;3.15;;;1.77;;
62687;SDS011;48752;51.056;17.056;2023-12-28T07:55:58;3.75;;;2.10;;
62687;SDS011;48752;51.056;17.056;2023-12-28T07:58:23;4.15;;;1.83;;
62687;SDS011;48752;51.056;17.056;2023-12-28T08:00:48;3.00;;;1.83;;
62687;SDS011;48752;51.056;17.056;2023-12-28T08:03:14;13.30;;;3.08;;
62687;SDS011;48752;51.056;17.056;2023-12-28T08:05:40;4.03;;;2.05;;
62687;SDS011;48752;51.056;17.056;2023-12-28T08:08:06;3.97;;;2.00;;
62687;SDS011;48752;51.056;17.056;2023-12-28T08:10:32;2.72;;;1.90;;
62687;SDS011;48752;51.056;17.056;2023-12-28T08:12:58;3.75;;;2.33;;
62687;SDS011;48752;51.056;17.056;2023-12-28T08:15:23;3.13;;;2.00;;
62687;SDS011;48752;51.056;17.056;2023-12-28T08:17:48;3.03;;;2.00;;
62687;SDS011;48752;51.056;17.056;2023-12-28T08:20:14;7.03;;;2.60;;
62687;SDS011;48752;51.056;17.056;2023-12-28T08:22:39;4.85;;;2.70;;
62687;SDS011;48752;51.056;17.056;2023-12-28T08:25:08;4.75;;;2.50;;
62687;SDS011;48752;51.056;17.056;2023-12-28T08:27:34;3.15;;;2.30;;
62687;SDS011;48752;51.056;17.056;2023-12-28T08:30:00;5.38;;;2.25;;
62687;SDS011;48752;51.056;17.056;2023-12-28T08:32:25;3.45;;;2.40;;
62687;SDS011;48752;51.056;17.056;2023-12-28T08:34:50;7.20;;;2.35;;
62687;SDS011;48752;51.056;17.056;2023-12-28T08:37:16;6.45;;;2.42;;
62687;SDS011;48752;51.056;17.056;2023-12-28T08:39:41;3.33;;;1.90;;
62687;SDS011;48752;51.056;17.056;2023-12-28T08:42:07;4.25;;;2.03;;
62687;SDS011;48752;51.056;17.056;2023-12-28T08:44:32;4.07;;;2.20;;
62687;SDS011;48752;51.056;17.056;2023-12-28T08:46:58;6.03;;;2.03;;
62687;SDS011;48752;51.056;17.056;2023-12-28T08:49:24;3.28;;;2.38;;
62687;SDS011;48752;51.056;17.056;2023-12-28T08:51:50;4.13;;;2.42;;
62687;SDS011;48752;51.056;17.056;2023-12-28T08:54:15;3.95;;;2.10;;
62687;SDS011;48752;51.056;17.056;2023-12-28T08:56:41;5.25;;;2.38;;
62687;SDS011;48752;51.056;17.056;2023-12-28T08:59:06;7.25;;;6.13;;
62687;SDS011;48752;51.056;17.056;2023-12-28T09:01:32;4.22;;;2.40;;
62687;SDS011;48752;51.056;17.056;2023-12-28T09:03:57;4.90;;;2.35;;
62687;SDS011;48752;51.056;17.056;2023-12-28T09:06:24;5.82;;;2.88;;
62687;SDS011;48752;51.056;17.056;2023-12-28T09:08:50;5.88;;;2.75;;
62687;SDS011;48752;51.056;17.056;2023-12-28T09:11:16;5.63;;;2.92;;
62687;SDS011;48752;51.056;17.056;2023-12-28T09:13:43;2.72;;;2.10;;
62687;SDS011;48752;51.056;17.056;2023-12-28T09:16:10;3.33;;;2.33;;
62687;SDS011;48752;51.056;17.056;2023-12-28T09:18:36;4.43;;;2.17;;
62687;SDS011;48752;51.056;17.056;2023-12-28T09:21:03;3.63;;;2.63;;
62687;SDS011;48752;51.056;17.056;2023-12-28T09:23:28;7.10;;;2.70;;
62687;SDS011;48752;51.056;17.056;2023-12-28T09:25:54;9.05;;;2.88;;
62687;SDS011;48752;51.056;17.056;2023-12-28T09:28:19;4.80;;;2.40;;
62687;SDS011;48752;51.056;17.056;2023-12-28T09:30:45;4.90;;;2.33;;
62687;SDS011;48752;51.056;17.056;2023-12-28T09:33:10;5.60;;;2.22;;
62687;SDS011;48752;51.056;17.056;2023-12-28T09:35:36;10.55;;;2.90;;
62687;SDS011;48752;51.056;17.056;2023-12-28T09:38:02;3.95;;;2.45;;
62687;SDS011;48752;51.056;17.056;2023-12-28T09:40:27;4.30;;;2.60;;
62687;SDS011;48752;51.056;17.056;2023-12-28T09:45:36;3.55;;;2.45;;
62687;SDS011;48752;51.056;17.056;2023-12-28T09:48:02;4.45;;;2.67;;
62687;SDS011;48752;51.056;17.056;2023-12-28T09:50:29;6.53;;;3.05;;
62687;SDS011;48752;51.056;17.056;2023-12-28T09:52:55;3.42;;;2.58;;
62687;SDS011;48752;51.056;17.056;2023-12-28T09:55:20;4.38;;;2.58;;
62687;SDS011;48752;51.056;17.056;2023-12-28T09:57:46;7.07;;;2.67;;
62687;SDS011;48752;51.056;17.056;2023-12-28T10:00:11;2.90;;;2.38;;
62687;SDS011;48752;51.056;17.056;2023-12-28T10:02:38;3.53;;;2.58;;
62687;SDS011;48752;51.056;17.056;2023-12-28T10:05:11;3.58;;;2.65;;
62687;SDS011;48752;51.056;17.056;2023-12-28T10:07:44;4.05;;;2.90;;
62687;SDS011;48752;51.056;17.056;2023-12-28T10:10:10;3.13;;;2.22;;
62687;SDS011;48752;51.056;17.056;2023-12-28T10:12:36;5.78;;;2.92;;
62687;SDS011;48752;51.056;17.056;2023-12-28T10:15:02;4.75;;;2.78;;
62687;SDS011;48752;51.056;17.056;2023-12-28T10:17:29;6.10;;;3.05;;
62687;SDS011;48752;51.056;17.056;2023-12-28T10:19:54;5.45;;;2.60;;
62687;SDS011;48752;51.056;17.056;2023-12-28T10:22:21;5.43;;;2.50;;
62687;SDS011;48752;51.056;17.056;2023-12-28T10:24:46;4.13;;;2.70;;
62687;SDS011;48752;51.056;17.056;2023-12-28T10:27:13;4.15;;;2.78;;
62687;SDS011;48752;51.056;17.056;2023-12-28T10:29:38;4.88;;;3.35;;
62687;SDS011;48752;51.056;17.056;2023-12-28T10:32:04;6.00;;;2.95;;
62687;SDS011;48752;51.056;17.056;2023-12-28T10:34:30;5.00;;;2.70;;
62687;SDS011;48752;51.056;17.056;2023-12-28T10:36:56;6.07;;;3.03;;
62687;SDS011;48752;51.056;17.056;2023-12-28T10:39:21;3.30;;;2.67;;
62687;SDS011;48752;51.056;17.056;2023-12-28T10:41:49;3.75;;;2.28;;
62687;SDS011;48752;51.056;17.056;2023-12-28T10:44:16;5.82;;;2.80;;
62687;SDS011;48752;51.056;17.056;2023-12-28T10:46:45;6.20;;;3.38;;
62687;SDS011;48752;51.056;17.056;2023-12-28T10:49:12;7.50;;;3.33;;
62687;SDS011;48752;51.056;17.056;2023-12-28T10:51:39;6.93;;;3.03;;
62687;SDS011;48752;51.056;17.056;2023-12-28T10:54:13;6.55;;;3.65;;
62687;SDS011;48752;51.056;17.056;2023-12-28T10:56:46;3.45;;;2.60;;
62687;SDS011;48752;51.056;17.056;2023-12-28T11:01:45;5.25;;;3.20;;
62687;SDS011;48752;51.056;17.056;2023-12-28T11:06:52;5.55;;;3.25;;
62687;SDS011;48752;51.056;17.056;2023-12-28T11:09:18;5.68;;;3.20;;
62687;SDS011;48752;51.056;17.056;2023-12-28T11:11:46;6.88;;;3.78;;
62687;SDS011;48752;51.056;17.056;2023-12-28T11:14:12;5.65;;;3.20;;
62687;SDS011;48752;51.056;17.056;2023-12-28T11:16:38;5.32;;;3.42;;
62687;SDS011;48752;51.056;17.056;2023-12-28T11:19:04;3.88;;;2.65;;
62687;SDS011;48752;51.056;17.056;2023-12-28T11:21:30;6.43;;;3.05;;
62687;SDS011;48752;51.056;17.056;2023-12-28T11:23:56;4.45;;;2.53;;
62687;SDS011;48752;51.056;17.056;2023-12-28T11:26:22;6.70;;;3.08;;
62687;SDS011;48752;51.056;17.056;2023-12-28T11:28:48;5.57;;;2.70;;
62687;SDS011;48752;51.056;17.056;2023-12-28T11:31:14;4.65;;;2.80;;
62687;SDS011;48752;51.056;17.056;2023-12-28T11:33:47;5.07;;;3.00;;
62687;SDS011;48752;51.056;17.056;2023-12-28T11:36:30;4.68;;;2.80;;
62687;SDS011;48752;51.056;17.056;2023-12-28T11:39:06;6.78;;;2.95;;
62687;SDS011;48752;51.056;17.056;2023-12-28T11:41:35;5.68;;;2.92;;
62687;SDS011;48752;51.056;17.056;2023-12-28T11:44:01;6.28;;;2.72;;
62687;SDS011;48752;51.056;17.056;2023-12-28T11:46:29;4.43;;;2.85;;
62687;SDS011;48752;51.056;17.056;2023-12-28T11:49:02;6.40;;;3.10;;
62687;SDS011;48752;51.056;17.056;2023-12-28T11:51:29;4.65;;;3.13;;
62687;SDS011;48752;51.056;17.056;2023-12-28T11:53:54;6.80;;;2.97;;
62687;SDS011;48752;51.056;17.056;2023-12-28T11:56:20;4.75;;;3.15;;
62687;SDS011;48752;51.056;17.056;2023-12-28T11:58:46;3.95;;;3.00;;
62687;SDS011;48752;51.056;17.056;2023-12-28T12:01:13;6.90;;;3.47;;
62687;SDS011;48752;51.056;17.056;2023-12-28T12:03:38;6.28;;;3.72;;
62687;SDS011;48752;51.056;17.056;2023-12-28T12:06:04;7.03;;;3.67;;
62687;SDS011;48752;51.056;17.056;2023-12-28T12:08:29;5.03;;;3.15;;
62687;SDS011;48752;51.056;17.056;2023-12-28T12:11:01;6.97;;;3.70;;
62687;SDS011;48752;51.056;17.056;2023-12-28T12:13:30;5.50;;;3.90;;
62687;SDS011;48752;51.056;17.056;2023-12-28T12:15:56;6.35;;;3.63;;
62687;SDS011;48752;51.056;17.056;2023-12-28T12:18:22;8.52;;;3.40;;
62687;SDS011;48752;51.056;17.056;2023-12-28T12:20:48;7.13;;;4.07;;
62687;SDS011;48752;51.056;17.056;2023-12-28T12:23:14;6.35;;;3.75;;
62687;SDS011;48752;51.056;17.056;2023-12-28T12:25:40;7.90;;;4.03;;
62687;SDS011;48752;51.056;17.056;2023-12-28T12:28:06;6.60;;;4.15;;
62687;SDS011;48752;51.056;17.056;2023-12-28T12:30:32;5.85;;;3.88;;
62687;SDS011;48752;51.056;17.056;2023-12-28T12:32:57;9.85;;;4.47;;
62687;SDS011;48752;51.056;17.056;2023-12-28T12:35:22;6.13;;;3.92;;
62687;SDS011;48752;51.056;17.056;2023-12-28T12:37:48;6.15;;;3.90;;
62687;SDS011;48752;51.056;17.056;2023-12-28T12:40:16;6.65;;;3.75;;
62687;SDS011;48752;51.056;17.056;2023-12-28T12:42:51;7.03;;;4.13;;
62687;SDS011;48752;51.056;17.056;2023-12-28T12:45:18;5.78;;;4.25;;
62687;SDS011;48752;51.056;17.056;2023-12-28T12:47:43;7.57;;;4.13;;
62687;SDS011;48752;51.056;17.056;2023-12-28T12:50:09;7.30;;;4.28;;
62687;SDS011;48752;51.056;17.056;2023-12-28T12:52:35;7.10;;;3.75;;
62687;SDS011;48752;51.056;17.056;2023-12-28T12:55:01;7.32;;;4.45;;
62687;SDS011;48752;51.056;17.056;2023-12-28T12:57:26;8.82;;;4.03;;
62687;SDS011;48752;51.056;17.056;2023-12-28T12:59:52;6.93;;;4.22;;
62687;SDS011;48752;51.056;17.056;2023-12-28T13:02:18;8.00;;;4.03;;
62687;SDS011;48752;51.056;17.056;2023-12-28T13:04:44;4.30;;;3.20;;
62687;SDS011;48752;51.056;17.056;2023-12-28T13:07:09;6.13;;;4.07;;
62687;SDS011;48752;51.056;17.056;2023-12-28T13:09:34;8.43;;;3.55;;
62687;SDS011;48752;51.056;17.056;2023-12-28T13:12:00;8.90;;;3.67;;
62687;SDS011;48752;51.056;17.056;2023-12-28T13:14:28;6.47;;;3.75;;
62687;SDS011;48752;51.056;17.056;2023-12-28T13:16:54;8.68;;;4.05;;
62687;SDS011;48752;51.056;17.056;2023-12-28T13:19:20;6.82;;;3.88;;
62687;SDS011;48752;51.056;17.056;2023-12-28T13:21:45;7.72;;;3.63;;
62687;SDS011;48752;51.056;17.056;2023-12-28T13:24:11;5.40;;;3.72;;
62687;SDS011;48752;51.056;17.056;2023-12-28T13:26:36;12.23;;;4.63;;
62687;SDS011;48752;51.056;17.056;2023-12-28T13:29:02;8.00;;;3.72;;
62687;SDS011;48752;51.056;17.056;2023-12-28T13:31:27;8.85;;;4.38;;
62687;SDS011;48752;51.056;17.056;2023-12-28T13:33:53;7.60;;;3.63;;
62687;SDS011;48752;51.056;17.056;2023-12-28T13:36:18;7.95;;;3.78;;
62687;SDS011;48752;51.056;17.056;2023-12-28T13:38:44;8.52;;;4.47;;
62687;SDS011;48752;51.056;17.056;2023-12-28T13:41:09;6.25;;;3.85;;
62687;SDS011;48752;51.056;17.056;2023-12-28T13:43:35;8.80;;;4.07;;
62687;SDS011;48752;51.056;17.056;2023-12-28T13:46:00;8.30;;;4.35;;
62687;SDS011;48752;51.056;17.056;2023-12-28T13:48:28;10.60;;;4.03;;
62687;SDS011;48752;51.056;17.056;2023-12-28T13:50:55;8.50;;;3.75;;
62687;SDS011;48752;51.056;17.056;2023-12-28T13:53:20;7.18;;;4.53;;
62687;SDS011;48752;51.056;17.056;2023-12-28T13:55:46;7.85;;;3.90;;
62687;SDS011;48752;51.056;17.056;2023-12-28T13:58:11;7.60;;;4.05;;
62687;SDS011;48752;51.056;17.056;2023-12-28T14:00:37;8.15;;;3.78;;
62687;SDS011;48752;51.056;17.056;2023-12-28T14:03:02;10.55;;;4.18;;
62687;SDS011;48752;51.056;17.056;2023-12-28T14:05:28;9.25;;;4.18;;
62687;SDS011;48752;51.056;17.056;2023-12-28T14:07:53;9.25;;;3.95;;
62687;SDS011;48752;51.056;17.056;2023-12-28T14:10:19;8.68;;;4.32;;
62687;SDS011;48752;51.056;17.056;2023-12-28T14:12:44;7.63;;;4.32;;
62687;SDS011;48752;51.056;17.056;2023-12-28T14:15:09;9.68;;;5.45;;
62687;SDS011;48752;51.056;17.056;2023-12-28T14:17:35;10.88;;;4.97;;
62687;SDS011;48752;51.056;17.056;2023-12-28T14:20:00;8.80;;;4.15;;
62687;SDS011;48752;51.056;17.056;2023-12-28T14:22:26;8.90;;;4.53;;
62687;SDS011;48752;51.056;17.056;2023-12-28T14:24:52;8.73;;;4.95;;
62687;SDS011;48752;51.056;17.056;2023-12-28T14:27:17;7.85;;;4.88;;